KMEM/MEM METAR and TAF weather

Enter ICAO airport designator
Station Type Date Time Source
KMEM METAR 2020/02/24 08:09 UTC NOAA

KMEM 240809Z 14008KT 4SM -RA BR BKN007 BKN022 OVC029 08/07 A2992 RMK AO2 P0001 T00780072


Station Type Date Time Source
KMEM Decoded METAR 2020/02/24 08:09 UTC NOAA

MEMPHIS INTERNATIONAL AIRPORT , TN, United States (KMEM) 35-02N 089-59W 86M
Feb 24, 2020 - 03:09 AM EST / 2020.02.24 0809 UTC
Wind: from the SE (140 degrees) at 9 MPH (8 KT):0
Visibility: 4 mile(s):0
Sky conditions: overcast
Weather: light rain; mist
Precipitation last hour: 0.01 inches
Temperature: 46.0 F (7.8 C)
Dew Point: 45.0 F (7.2 C)
Relative Humidity: 95%
Pressure (altimeter): 29.92 in. Hg (1013 hPa)
ob: KMEM 240809Z 14008KT 4SM -RA BR BKN007 BKN022 OVC029 08/07 A2992 RMK AO2 P0001 T00780072
cycle: 8

Station Type Date Time Source
KMEM TAF 2020/02/24 06:40 UTC NOAA

TAF KMEM 240538Z 2406/2512 15008KT P6SM -SHRA SCT015 OVC040
FM240800 15012KT 6SM -SHRA OVC015
FM241100 17011G18KT 5SM -SHRA OVC010 WS020/20045KT
TEMPO 2411/2415 OVC008
FM241900 19012G22KT P6SM VCSH OVC015
TEMPO 2423/2424 26015G25KT 3SM TSRA BKN015 OVC035CB
FM250000 22011KT P6SM VCSH BKN035
FM250200 24009KT P6SM BKN040
FM250900 27007KT P6SM BKN020

Example: see airport list